sensor_id;sensor_type;location;lat;lon;timestamp;P1;durP1;ratioP1;P2;durP2;ratioP2
74788;SDS011;63313;48.258;12.518;2023-03-01T00:00:14;24.419999999999998;;;13.040000000000001;;
74788;SDS011;63313;48.258;12.518;2023-03-01T00:05:43;23.640000000000004;;;12.74;;
74788;SDS011;63313;48.258;12.518;2023-03-01T00:11:11;22.13;;;12.18;;
74788;SDS011;63313;48.258;12.518;2023-03-01T00:16:39;24.21;;;12.989999999999998;;
74788;SDS011;63313;48.258;12.518;2023-03-01T00:22:07;24.95;;;13.579999999999998;;
74788;SDS011;63313;48.258;12.518;2023-03-01T00:27:34;31.249999999999993;;;13.84;;
74788;SDS011;63313;48.258;12.518;2023-03-01T00:33:01;25.619999999999997;;;12.940000000000001;;
74788;SDS011;63313;48.258;12.518;2023-03-01T00:38:28;23.78;;;12.48;;
74788;SDS011;63313;48.258;12.518;2023-03-01T00:44:00;25.590000000000003;;;13.52;;
74788;SDS011;63313;48.258;12.518;2023-03-01T00:49:27;26.059999999999995;;;12.54;;
74788;SDS011;63313;48.258;12.518;2023-03-01T00:54:54;24.99;;;13.1;;
74788;SDS011;63313;48.258;12.518;2023-03-01T01:00:21;25.18;;;13.24;;
74788;SDS011;63313;48.258;12.518;2023-03-01T01:05:48;23.419999999999998;;;12.7;;
74788;SDS011;63313;48.258;12.518;2023-03-01T01:11:16;28.999999999999993;;;14.200000000000003;;
74788;SDS011;63313;48.258;12.518;2023-03-01T01:16:43;25.76;;;14.12;;
74788;SDS011;63313;48.258;12.518;2023-03-01T01:22:10;25.000000000000004;;;12.95;;
74788;SDS011;63313;48.258;12.518;2023-03-01T01:27:37;24.16;;;13.940000000000001;;
74788;SDS011;63313;48.258;12.518;2023-03-01T01:33:04;27.110000000000003;;;13.969999999999999;;
74788;SDS011;63313;48.258;12.518;2023-03-01T01:38:32;29.07;;;14.280000000000001;;
74788;SDS011;63313;48.258;12.518;2023-03-01T01:44:16;23.229999999999997;;;12.59;;
74788;SDS011;63313;48.258;12.518;2023-03-01T01:49:44;24.880000000000003;;;13.63;;
74788;SDS011;63313;48.258;12.518;2023-03-01T01:55:14;25.29;;;13.25;;
74788;SDS011;63313;48.258;12.518;2023-03-01T02:00:42;26.560000000000002;;;14.0;;
74788;SDS011;63313;48.258;12.518;2023-03-01T02:06:12;31.929999999999996;;;14.76;;
74788;SDS011;63313;48.258;12.518;2023-03-01T02:11:40;29.160000000000004;;;14.320000000000002;;
74788;SDS011;63313;48.258;12.518;2023-03-01T02:17:08;24.28;;;14.15;;
74788;SDS011;63313;48.258;12.518;2023-03-01T02:22:35;26.190000000000005;;;13.6;;
74788;SDS011;63313;48.258;12.518;2023-03-01T02:28:04;28.99;;;15.069999999999999;;
74788;SDS011;63313;48.258;12.518;2023-03-01T02:33:36;27.459999999999997;;;14.36;;
74788;SDS011;63313;48.258;12.518;2023-03-01T02:39:05;24.799999999999997;;;13.73;;
74788;SDS011;63313;48.258;12.518;2023-03-01T02:44:33;27.330000000000002;;;13.510000000000002;;
74788;SDS011;63313;48.258;12.518;2023-03-01T02:50:00;27.57;;;14.329999999999998;;
74788;SDS011;63313;48.258;12.518;2023-03-01T02:55:27;26.330000000000002;;;15.079999999999998;;
74788;SDS011;63313;48.258;12.518;2023-03-01T03:00:54;32.059999999999995;;;14.959999999999999;;
74788;SDS011;63313;48.258;12.518;2023-03-01T03:06:22;28.93;;;14.25;;
74788;SDS011;63313;48.258;12.518;2023-03-01T03:11:49;30.75;;;15.750000000000004;;
74788;SDS011;63313;48.258;12.518;2023-03-01T03:17:16;29.379999999999995;;;14.87;;
74788;SDS011;63313;48.258;12.518;2023-03-01T03:22:44;29.060000000000002;;;14.729999999999999;;
74788;SDS011;63313;48.258;12.518;2023-03-01T03:28:11;26.880000000000003;;;14.910000000000002;;
74788;SDS011;63313;48.258;12.518;2023-03-01T03:33:38;28.080000000000002;;;14.59;;
74788;SDS011;63313;48.258;12.518;2023-03-01T03:39:05;32.04;;;15.229999999999999;;
74788;SDS011;63313;48.258;12.518;2023-03-01T03:44:33;32.18;;;13.73;;
74788;SDS011;63313;48.258;12.518;2023-03-01T03:50:00;29.729999999999997;;;13.870000000000001;;
74788;SDS011;63313;48.258;12.518;2023-03-01T03:55:27;27.75;;;13.959999999999999;;
74788;SDS011;63313;48.258;12.518;2023-03-01T04:00:54;36.77;;;14.309999999999999;;
74788;SDS011;63313;48.258;12.518;2023-03-01T04:06:22;28.240000000000002;;;14.16;;
74788;SDS011;63313;48.258;12.518;2023-03-01T04:11:49;28.909999999999997;;;15.25;;
74788;SDS011;63313;48.258;12.518;2023-03-01T04:17:16;29.630000000000003;;;14.52;;
74788;SDS011;63313;48.258;12.518;2023-03-01T04:22:43;25.72;;;14.5;;
74788;SDS011;63313;48.258;12.518;2023-03-01T04:28:11;29.71;;;14.5;;
74788;SDS011;63313;48.258;12.518;2023-03-01T04:33:38;33.370000000000005;;;15.75;;
74788;SDS011;63313;48.258;12.518;2023-03-01T04:39:05;32.02;;;15.330000000000002;;
74788;SDS011;63313;48.258;12.518;2023-03-01T04:44:32;29.090000000000003;;;14.419999999999998;;
74788;SDS011;63313;48.258;12.518;2023-03-01T04:49:59;27.379999999999995;;;14.570000000000002;;
74788;SDS011;63313;48.258;12.518;2023-03-01T04:55:27;32.1;;;15.23;;
74788;SDS011;63313;48.258;12.518;2023-03-01T05:00:54;33.8;;;14.2;;
74788;SDS011;63313;48.258;12.518;2023-03-01T05:06:22;28.580000000000002;;;14.99;;
74788;SDS011;63313;48.258;12.518;2023-03-01T05:11:49;34.91;;;15.26;;
74788;SDS011;63313;48.258;12.518;2023-03-01T05:17:16;32.83;;;15.780000000000001;;
74788;SDS011;63313;48.258;12.518;2023-03-01T05:22:43;35.14;;;15.900000000000002;;
74788;SDS011;63313;48.258;12.518;2023-03-01T05:28:11;37.61;;;16.63;;
74788;SDS011;63313;48.258;12.518;2023-03-01T05:33:38;32.46;;;15.040000000000001;;
74788;SDS011;63313;48.258;12.518;2023-03-01T05:39:05;30.54;;;15.650000000000002;;
74788;SDS011;63313;48.258;12.518;2023-03-01T05:44:32;34.33;;;15.7;;
74788;SDS011;63313;48.258;12.518;2023-03-01T05:50:00;33.349999999999994;;;15.929999999999998;;
74788;SDS011;63313;48.258;12.518;2023-03-01T05:55:27;44.989999999999995;;;18.700000000000003;;
74788;SDS011;63313;48.258;12.518;2023-03-01T06:00:54;39.03;;;17.31;;
74788;SDS011;63313;48.258;12.518;2023-03-01T06:06:22;38.01;;;17.130000000000003;;
74788;SDS011;63313;48.258;12.518;2023-03-01T06:11:49;45.2;;;20.41;;
74788;SDS011;63313;48.258;12.518;2023-03-01T06:17:16;44.839999999999996;;;19.689999999999998;;
74788;SDS011;63313;48.258;12.518;2023-03-01T06:22:43;41.13;;;16.869999999999997;;
74788;SDS011;63313;48.258;12.518;2023-03-01T06:28:11;48.61;;;20.990000000000002;;
74788;SDS011;63313;48.258;12.518;2023-03-01T06:33:38;35.339999999999996;;;17.29;;
74788;SDS011;63313;48.258;12.518;2023-03-01T06:39:05;42.73;;;17.37;;
74788;SDS011;63313;48.258;12.518;2023-03-01T06:44:32;41.5;;;17.369999999999997;;
74788;SDS011;63313;48.258;12.518;2023-03-01T06:49:59;37.92;;;17.4;;
74788;SDS011;63313;48.258;12.518;2023-03-01T06:55:26;36.809999999999995;;;17.639999999999997;;
74788;SDS011;63313;48.258;12.518;2023-03-01T07:00:53;34.800000000000004;;;17.06;;
74788;SDS011;63313;48.258;12.518;2023-03-01T07:06:20;43.19;;;17.41;;
74788;SDS011;63313;48.258;12.518;2023-03-01T07:11:48;37.45;;;16.020000000000003;;
74788;SDS011;63313;48.258;12.518;2023-03-01T07:17:15;33.3;;;16.09;;
74788;SDS011;63313;48.258;12.518;2023-03-01T07:22:42;39.71;;;15.969999999999999;;
74788;SDS011;63313;48.258;12.518;2023-03-01T07:28:09;33.46;;;15.750000000000004;;
74788;SDS011;63313;48.258;12.518;2023-03-01T07:33:36;36.88;;;15.65;;
74788;SDS011;63313;48.258;12.518;2023-03-01T07:39:03;34.68;;;16.580000000000002;;
74788;SDS011;63313;48.258;12.518;2023-03-01T07:44:30;34.79;;;15.16;;
74788;SDS011;63313;48.258;12.518;2023-03-01T07:49:57;35.97;;;16.240000000000002;;
74788;SDS011;63313;48.258;12.518;2023-03-01T07:55:24;33.349999999999994;;;15.64;;
74788;SDS011;63313;48.258;12.518;2023-03-01T08:00:51;33.17999999999999;;;15.819999999999999;;
74788;SDS011;63313;48.258;12.518;2023-03-01T08:06:18;31.309999999999995;;;15.55;;
74788;SDS011;63313;48.258;12.518;2023-03-01T08:11:45;34.92;;;16.29;;
74788;SDS011;63313;48.258;12.518;2023-03-01T08:17:13;32.580000000000005;;;16.499999999999996;;
74788;SDS011;63313;48.258;12.518;2023-03-01T08:22:40;35.089999999999996;;;16.19;;
74788;SDS011;63313;48.258;12.518;2023-03-01T08:28:07;31.119999999999997;;;16.479999999999997;;
74788;SDS011;63313;48.258;12.518;2023-03-01T08:33:34;31.619999999999997;;;15.4;;
74788;SDS011;63313;48.258;12.518;2023-03-01T08:39:01;33.03;;;15.540000000000001;;
74788;SDS011;63313;48.258;12.518;2023-03-01T08:44:28;33.279999999999994;;;15.36;;
74788;SDS011;63313;48.258;12.518;2023-03-01T08:49:55;34.31;;;17.279999999999998;;
74788;SDS011;63313;48.258;12.518;2023-03-01T08:55:22;35.24;;;17.339999999999996;;
74788;SDS011;63313;48.258;12.518;2023-03-01T09:00:49;34.55;;;16.409999999999997;;
74788;SDS011;63313;48.258;12.518;2023-03-01T09:06:17;36.88;;;17.270000000000003;;
74788;SDS011;63313;48.258;12.518;2023-03-01T09:11:44;32.95;;;17.67;;
74788;SDS011;63313;48.258;12.518;2023-03-01T09:17:11;33.4;;;17.610000000000003;;
74788;SDS011;63313;48.258;12.518;2023-03-01T09:22:38;36.59;;;17.7;;
74788;SDS011;63313;48.258;12.518;2023-03-01T09:28:05;32.529999999999994;;;16.500000000000004;;
74788;SDS011;63313;48.258;12.518;2023-03-01T09:33:33;32.519999999999996;;;16.32;;
74788;SDS011;63313;48.258;12.518;2023-03-01T09:39:00;33.54;;;17.110000000000003;;
74788;SDS011;63313;48.258;12.518;2023-03-01T09:44:29;29.929999999999996;;;14.559999999999999;;
74788;SDS011;63313;48.258;12.518;2023-03-01T09:49:58;28.770000000000003;;;15.559999999999999;;
74788;SDS011;63313;48.258;12.518;2023-03-01T09:55:28;34.2;;;16.95;;
74788;SDS011;63313;48.258;12.518;2023-03-01T10:00:57;33.24999999999999;;;18.16;;
74788;SDS011;63313;48.258;12.518;2023-03-01T10:06:26;31.080000000000002;;;17.61;;
74788;SDS011;63313;48.258;12.518;2023-03-01T10:11:53;27.029999999999994;;;15.650000000000002;;
74788;SDS011;63313;48.258;12.518;2023-03-01T10:17:24;31.8;;;16.67;;
74788;SDS011;63313;48.258;12.518;2023-03-01T10:22:52;30.77;;;17.5;;
74788;SDS011;63313;48.258;12.518;2023-03-01T10:28:21;33.59;;;17.390000000000004;;
74788;SDS011;63313;48.258;12.518;2023-03-01T10:33:51;31.51;;;15.61;;
74788;SDS011;63313;48.258;12.518;2023-03-01T10:39:19;28.96;;;16.560000000000002;;
74788;SDS011;63313;48.258;12.518;2023-03-01T10:44:47;31.759999999999998;;;15.75;;
74788;SDS011;63313;48.258;12.518;2023-03-01T10:50:19;28.25;;;15.85;;
74788;SDS011;63313;48.258;12.518;2023-03-01T10:55:46;28.690000000000005;;;16.75;;
74788;SDS011;63313;48.258;12.518;2023-03-01T11:01:24;33.0;;;15.8;;
74788;SDS011;63313;48.258;12.518;2023-03-01T11:06:57;29.570000000000004;;;15.560000000000002;;
74788;SDS011;63313;48.258;12.518;2023-03-01T11:12:25;31.060000000000002;;;16.940000000000005;;
74788;SDS011;63313;48.258;12.518;2023-03-01T11:17:52;25.46;;;14.819999999999999;;
74788;SDS011;63313;48.258;12.518;2023-03-01T11:23:19;28.089999999999996;;;15.439999999999998;;
74788;SDS011;63313;48.258;12.518;2023-03-01T11:28:48;25.679999999999996;;;14.49;;
74788;SDS011;63313;48.258;12.518;2023-03-01T11:34:17;27.2;;;16.93;;
74788;SDS011;63313;48.258;12.518;2023-03-01T11:39:47;28.979999999999997;;;15.75;;
74788;SDS011;63313;48.258;12.518;2023-03-01T11:45:17;25.37;;;14.2;;
74788;SDS011;63313;48.258;12.518;2023-03-01T11:50:46;26.8;;;15.41;;
74788;SDS011;63313;48.258;12.518;2023-03-01T11:56:16;26.709999999999997;;;15.48;;
74788;SDS011;63313;48.258;12.518;2023-03-01T12:01:50;26.339999999999996;;;14.66;;
74788;SDS011;63313;48.258;12.518;2023-03-01T12:07:27;26.919999999999998;;;14.76;;
74788;SDS011;63313;48.258;12.518;2023-03-01T12:12:58;23.94;;;15.069999999999999;;
74788;SDS011;63313;48.258;12.518;2023-03-01T12:18:35;24.590000000000003;;;13.87;;
74788;SDS011;63313;48.258;12.518;2023-03-01T12:25:14;32.99999999999999;;;16.169999999999998;;
74788;SDS011;63313;48.258;12.518;2023-03-01T12:30:47;23.76;;;13.91;;
74788;SDS011;63313;48.258;12.518;2023-03-01T12:36:25;29.330000000000002;;;15.440000000000001;;
74788;SDS011;63313;48.258;12.518;2023-03-01T12:41:57;25.229999999999997;;;13.55;;
74788;SDS011;63313;48.258;12.518;2023-03-01T12:47:29;24.47;;;14.329999999999998;;
74788;SDS011;63313;48.258;12.518;2023-03-01T12:52:58;24.95;;;14.5;;
74788;SDS011;63313;48.258;12.518;2023-03-01T12:58:27;22.68;;;13.529999999999998;;
74788;SDS011;63313;48.258;12.518;2023-03-01T13:04:01;29.839999999999996;;;14.829999999999998;;
74788;SDS011;63313;48.258;12.518;2023-03-01T13:09:31;23.72;;;13.6;;
74788;SDS011;63313;48.258;12.518;2023-03-01T13:15:01;25.810000000000002;;;13.669999999999998;;
74788;SDS011;63313;48.258;12.518;2023-03-01T13:20:31;23.91;;;14.040000000000001;;
74788;SDS011;63313;48.258;12.518;2023-03-01T13:26:01;25.749999999999993;;;13.4;;
74788;SDS011;63313;48.258;12.518;2023-03-01T13:32:40;21.189999999999998;;;13.719999999999999;;
74788;SDS011;63313;48.258;12.518;2023-03-01T13:38:36;21.900000000000002;;;13.38;;
74788;SDS011;63313;48.258;12.518;2023-03-01T13:44:11;20.56;;;13.37;;
74788;SDS011;63313;48.258;12.518;2023-03-01T13:49:43;18.369999999999997;;;11.75;;
74788;SDS011;63313;48.258;12.518;2023-03-01T13:55:15;18.520000000000003;;;12.42;;
74788;SDS011;63313;48.258;12.518;2023-03-01T14:00:42;21.57;;;11.84;;
74788;SDS011;63313;48.258;12.518;2023-03-01T14:06:12;17.8;;;10.73;;
74788;SDS011;63313;48.258;12.518;2023-03-01T14:11:54;19.34;;;10.7;;
74788;SDS011;63313;48.258;12.518;2023-03-01T14:17:41;15.520000000000001;;;9.31;;
74788;SDS011;63313;48.258;12.518;2023-03-01T14:23:11;18.119999999999997;;;10.190000000000001;;
74788;SDS011;63313;48.258;12.518;2023-03-01T14:28:39;17.160000000000004;;;9.680000000000001;;
74788;SDS011;63313;48.258;12.518;2023-03-01T14:34:16;17.05;;;9.11;;
74788;SDS011;63313;48.258;12.518;2023-03-01T14:39:44;16.869999999999997;;;9.37;;
74788;SDS011;63313;48.258;12.518;2023-03-01T14:45:11;14.300000000000002;;;8.879999999999999;;
74788;SDS011;63313;48.258;12.518;2023-03-01T14:50:40;14.37;;;7.7299999999999995;;
74788;SDS011;63313;48.258;12.518;2023-03-01T14:56:12;16.32;;;9.37;;
74788;SDS011;63313;48.258;12.518;2023-03-01T15:01:40;13.570000000000002;;;8.46;;
74788;SDS011;63313;48.258;12.518;2023-03-01T15:07:09;14.820000000000002;;;8.839999999999998;;
74788;SDS011;63313;48.258;12.518;2023-03-01T15:12:40;13.570000000000002;;;8.129999999999999;;
74788;SDS011;63313;48.258;12.518;2023-03-01T15:18:16;14.77;;;8.750000000000002;;
74788;SDS011;63313;48.258;12.518;2023-03-01T15:23:47;14.719999999999999;;;8.05;;
74788;SDS011;63313;48.258;12.518;2023-03-01T15:29:16;15.66;;;8.0;;
74788;SDS011;63313;48.258;12.518;2023-03-01T15:34:44;13.679999999999998;;;7.459999999999999;;
74788;SDS011;63313;48.258;12.518;2023-03-01T15:40:19;20.39;;;8.26;;
74788;SDS011;63313;48.258;12.518;2023-03-01T15:45:47;15.520000000000001;;;7.540000000000001;;
74788;SDS011;63313;48.258;12.518;2023-03-01T15:51:27;13.63;;;7.15;;
74788;SDS011;63313;48.258;12.518;2023-03-01T15:56:55;17.15;;;7.349999999999999;;
74788;SDS011;63313;48.258;12.518;2023-03-01T16:02:23;22.82;;;7.94;;
74788;SDS011;63313;48.258;12.518;2023-03-01T16:07:50;18.970000000000002;;;8.52;;
74788;SDS011;63313;48.258;12.518;2023-03-01T16:13:18;17.4;;;7.4799999999999995;;
74788;SDS011;63313;48.258;12.518;2023-03-01T16:18:45;15.280000000000001;;;8.320000000000002;;
74788;SDS011;63313;48.258;12.518;2023-03-01T16:24:13;14.180000000000001;;;7.74;;
74788;SDS011;63313;48.258;12.518;2023-03-01T16:29:40;16.82;;;8.11;;
74788;SDS011;63313;48.258;12.518;2023-03-01T16:35:07;19.330000000000002;;;8.44;;
74788;SDS011;63313;48.258;12.518;2023-03-01T16:40:35;20.51;;;10.71;;
74788;SDS011;63313;48.258;12.518;2023-03-01T16:46:04;19.750000000000004;;;9.16;;
74788;SDS011;63313;48.258;12.518;2023-03-01T16:51:36;23.63;;;10.150000000000002;;
74788;SDS011;63313;48.258;12.518;2023-03-01T16:57:03;24.5;;;9.820000000000002;;
74788;SDS011;63313;48.258;12.518;2023-03-01T17:02:31;26.869999999999997;;;10.92;;
74788;SDS011;63313;48.258;12.518;2023-03-01T17:07:59;20.61;;;9.690000000000001;;
74788;SDS011;63313;48.258;12.518;2023-03-01T17:13:26;26.57;;;11.08;;
74788;SDS011;63313;48.258;12.518;2023-03-01T17:18:53;27.080000000000002;;;10.889999999999999;;
74788;SDS011;63313;48.258;12.518;2023-03-01T17:24:20;21.81;;;10.42;;
74788;SDS011;63313;48.258;12.518;2023-03-01T17:29:47;25.03;;;11.17;;
74788;SDS011;63313;48.258;12.518;2023-03-01T17:35:14;28.26;;;12.540000000000001;;
74788;SDS011;63313;48.258;12.518;2023-03-01T17:40:41;26.279999999999994;;;12.010000000000002;;
74788;SDS011;63313;48.258;12.518;2023-03-01T17:46:09;25.14;;;12.690000000000001;;
74788;SDS011;63313;48.258;12.518;2023-03-01T17:51:36;22.509999999999998;;;11.239999999999998;;
74788;SDS011;63313;48.258;12.518;2023-03-01T17:57:03;28.619999999999997;;;12.07;;
74788;SDS011;63313;48.258;12.518;2023-03-01T18:02:30;29.839999999999996;;;12.78;;
74788;SDS011;63313;48.258;12.518;2023-03-01T18:07:57;24.57;;;12.319999999999999;;
74788;SDS011;63313;48.258;12.518;2023-03-01T18:13:25;31.390000000000004;;;13.530000000000001;;
74788;SDS011;63313;48.258;12.518;2023-03-01T18:18:52;26.089999999999996;;;11.21;;
74788;SDS011;63313;48.258;12.518;2023-03-01T18:24:19;29.49;;;12.059999999999999;;
74788;SDS011;63313;48.258;12.518;2023-03-01T18:29:46;22.21;;;11.55;;
74788;SDS011;63313;48.258;12.518;2023-03-01T18:35:14;28.339999999999996;;;11.91;;
74788;SDS011;63313;48.258;12.518;2023-03-01T18:40:41;23.130000000000003;;;11.19;;
74788;SDS011;63313;48.258;12.518;2023-03-01T18:46:08;26.660000000000004;;;10.7;;
74788;SDS011;63313;48.258;12.518;2023-03-01T18:51:35;24.91;;;11.29;;
74788;SDS011;63313;48.258;12.518;2023-03-01T18:57:02;25.29;;;11.229999999999999;;
74788;SDS011;63313;48.258;12.518;2023-03-01T19:02:31;22.73;;;11.34;;
74788;SDS011;63313;48.258;12.518;2023-03-01T19:07:59;21.11;;;10.84;;
74788;SDS011;63313;48.258;12.518;2023-03-01T19:13:32;27.600000000000005;;;13.190000000000001;;
74788;SDS011;63313;48.258;12.518;2023-03-01T19:19:05;29.82;;;13.4;;
74788;SDS011;63313;48.258;12.518;2023-03-01T19:24:37;27.209999999999997;;;12.59;;
74788;SDS011;63313;48.258;12.518;2023-03-01T19:30:08;29.429999999999996;;;12.24;;
74788;SDS011;63313;48.258;12.518;2023-03-01T19:36:00;26.079999999999995;;;12.54;;
74788;SDS011;63313;48.258;12.518;2023-03-01T19:41:28;26.15;;;12.809999999999999;;
74788;SDS011;63313;48.258;12.518;2023-03-01T19:46:56;32.06;;;13.74;;
74788;SDS011;63313;48.258;12.518;2023-03-01T19:53:15;29.270000000000003;;;13.65;;
74788;SDS011;63313;48.258;12.518;2023-03-01T19:58:54;30.54;;;13.219999999999999;;
74788;SDS011;63313;48.258;12.518;2023-03-01T20:04:21;28.820000000000004;;;13.930000000000001;;
74788;SDS011;63313;48.258;12.518;2023-03-01T20:09:48;24.85;;;12.919999999999998;;
74788;SDS011;63313;48.258;12.518;2023-03-01T20:15:15;31.23;;;13.14;;
74788;SDS011;63313;48.258;12.518;2023-03-01T20:20:46;27.5;;;13.540000000000001;;
74788;SDS011;63313;48.258;12.518;2023-03-01T20:26:14;25.970000000000006;;;12.760000000000002;;
74788;SDS011;63313;48.258;12.518;2023-03-01T20:31:41;33.45;;;14.23;;
74788;SDS011;63313;48.258;12.518;2023-03-01T20:37:08;31.03;;;14.15;;
74788;SDS011;63313;48.258;12.518;2023-03-01T20:42:35;33.769999999999996;;;15.35;;
74788;SDS011;63313;48.258;12.518;2023-03-01T20:48:02;34.42;;;15.35;;
74788;SDS011;63313;48.258;12.518;2023-03-01T20:53:29;34.019999999999996;;;15.550000000000002;;
74788;SDS011;63313;48.258;12.518;2023-03-01T20:58:56;37.239999999999995;;;17.060000000000002;;
74788;SDS011;63313;48.258;12.518;2023-03-01T21:04:23;36.35;;;16.240000000000002;;
74788;SDS011;63313;48.258;12.518;2023-03-01T21:09:55;34.7;;;15.800000000000002;;
74788;SDS011;63313;48.258;12.518;2023-03-01T21:15:23;33.82;;;15.600000000000003;;
74788;SDS011;63313;48.258;12.518;2023-03-01T21:20:51;34.019999999999996;;;15.829999999999998;;
74788;SDS011;63313;48.258;12.518;2023-03-01T21:26:23;34.03;;;15.37;;
74788;SDS011;63313;48.258;12.518;2023-03-01T21:31:56;36.309999999999995;;;16.779999999999998;;
74788;SDS011;63313;48.258;12.518;2023-03-01T21:37:23;36.83;;;17.060000000000002;;
74788;SDS011;63313;48.258;12.518;2023-03-01T21:42:52;40.87;;;17.38;;
74788;SDS011;63313;48.258;12.518;2023-03-01T22:04:42;33.08;;;16.18;;
74788;SDS011;63313;48.258;12.518;2023-03-01T22:10:15;33.9;;;16.44;;
74788;SDS011;63313;48.258;12.518;2023-03-01T22:15:43;33.88;;;16.41;;
74788;SDS011;63313;48.258;12.518;2023-03-01T22:21:12;38.69;;;17.19;;
74788;SDS011;63313;48.258;12.518;2023-03-01T22:26:39;35.4;;;17.169999999999998;;
74788;SDS011;63313;48.258;12.518;2023-03-01T22:32:07;36.81;;;16.220000000000002;;
74788;SDS011;63313;48.258;12.518;2023-03-01T22:37:34;38.209999999999994;;;17.71;;
74788;SDS011;63313;48.258;12.518;2023-03-01T22:43:01;36.95;;;17.380000000000003;;
74788;SDS011;63313;48.258;12.518;2023-03-01T22:48:29;42.74;;;17.279999999999998;;
74788;SDS011;63313;48.258;12.518;2023-03-01T22:53:56;34.41;;;16.87;;
74788;SDS011;63313;48.258;12.518;2023-03-01T22:59:26;37.32000000000001;;;17.550000000000004;;
74788;SDS011;63313;48.258;12.518;2023-03-01T23:07:48;39.47;;;18.86;;
74788;SDS011;63313;48.258;12.518;2023-03-01T23:13:39;38.03;;;18.14;;
74788;SDS011;63313;48.258;12.518;2023-03-01T23:19:16;38.89;;;17.61;;
74788;SDS011;63313;48.258;12.518;2023-03-01T23:24:45;38.28999999999999;;;18.51;;
74788;SDS011;63313;48.258;12.518;2023-03-01T23:30:17;44.17;;;18.009999999999998;;
74788;SDS011;63313;48.258;12.518;2023-03-01T23:35:48;40.3;;;18.14;;
74788;SDS011;63313;48.258;12.518;2023-03-01T23:41:21;40.269999999999996;;;17.65;;
74788;SDS011;63313;48.258;12.518;2023-03-01T23:47:08;38.82000000000001;;;17.369999999999997;;
74788;SDS011;63313;48.258;12.518;2023-03-01T23:53:12;42.33;;;18.48;;
